sensor_id;sensor_type;location;lat;lon;timestamp;temperature;humidity
3752;DHT22;50827;47.014;7.652;2022-08-07T00:00:23;19.10;99.90
3752;DHT22;50827;47.014;7.652;2022-08-07T00:02:50;19.10;99.90
3752;DHT22;50827;47.014;7.652;2022-08-07T00:05:19;19.00;99.90
3752;DHT22;50827;47.014;7.652;2022-08-07T00:07:49;18.90;99.90
3752;DHT22;50827;47.014;7.652;2022-08-07T00:10:26;18.80;99.90
3752;DHT22;50827;47.014;7.652;2022-08-07T00:12:57;18.80;99.90
3752;DHT22;50827;47.014;7.652;2022-08-07T00:15:28;18.80;99.90
3752;DHT22;50827;47.014;7.652;2022-08-07T00:18:14;18.70;99.90
3752;DHT22;50827;47.014;7.652;2022-08-07T00:20:46;18.70;99.90
3752;DHT22;50827;47.014;7.652;2022-08-07T00:23:15;18.80;99.90
3752;DHT22;50827;47.014;7.652;2022-08-07T00:25:43;18.80;99.90
3752;DHT22;50827;47.014;7.652;2022-08-07T00:28:24;18.90;99.90
3752;DHT22;50827;47.014;7.652;2022-08-07T00:31:01;18.80;99.90
3752;DHT22;50827;47.014;7.652;2022-08-07T00:33:32;18.80;99.90
3752;DHT22;50827;47.014;7.652;2022-08-07T00:35:59;18.80;99.90
3752;DHT22;50827;47.014;7.652;2022-08-07T00:38:26;18.80;99.90
3752;DHT22;50827;47.014;7.652;2022-08-07T00:40:58;18.80;99.90
3752;DHT22;50827;47.014;7.652;2022-08-07T00:43:25;18.80;99.90
3752;DHT22;50827;47.014;7.652;2022-08-07T00:46:12;18.80;99.90
3752;DHT22;50827;47.014;7.652;2022-08-07T00:48:40;18.80;99.90
3752;DHT22;50827;47.014;7.652;2022-08-07T00:51:08;18.80;99.90
3752;DHT22;50827;47.014;7.652;2022-08-07T00:53:36;18.90;99.90
3752;DHT22;50827;47.014;7.652;2022-08-07T00:56:17;18.90;99.90
3752;DHT22;50827;47.014;7.652;2022-08-07T00:58:44;18.90;99.90
3752;DHT22;50827;47.014;7.652;2022-08-07T01:01:15;18.80;99.90
3752;DHT22;50827;47.014;7.652;2022-08-07T01:03:42;18.90;99.90
3752;DHT22;50827;47.014;7.652;2022-08-07T01:06:23;18.90;99.90
3752;DHT22;50827;47.014;7.652;2022-08-07T01:08:50;18.90;99.90
3752;DHT22;50827;47.014;7.652;2022-08-07T01:11:21;18.80;99.90
3752;DHT22;50827;47.014;7.652;2022-08-07T01:14:08;18.80;99.90
3752;DHT22;50827;47.014;7.652;2022-08-07T01:16:35;18.80;99.90
3752;DHT22;50827;47.014;7.652;2022-08-07T01:19:04;18.80;99.90
3752;DHT22;50827;47.014;7.652;2022-08-07T01:21:49;18.80;99.90
3752;DHT22;50827;47.014;7.652;2022-08-07T01:24:21;18.80;99.90
3752;DHT22;50827;47.014;7.652;2022-08-07T01:26:49;18.80;99.90
3752;DHT22;50827;47.014;7.652;2022-08-07T01:29:18;18.80;99.90
3752;DHT22;50827;47.014;7.652;2022-08-07T01:31:46;18.80;99.90
3752;DHT22;50827;47.014;7.652;2022-08-07T01:34:14;18.80;99.90
3752;DHT22;50827;47.014;7.652;2022-08-07T01:39:10;18.80;99.90
3752;DHT22;50827;47.014;7.652;2022-08-07T01:41:38;18.80;99.90
3752;DHT22;50827;47.014;7.652;2022-08-07T01:44:25;18.80;99.90
3752;DHT22;50827;47.014;7.652;2022-08-07T01:46:52;18.80;99.90
3752;DHT22;50827;47.014;7.652;2022-08-07T01:49:20;18.80;99.90
3752;DHT22;50827;47.014;7.652;2022-08-07T01:51:48;18.80;99.90
3752;DHT22;50827;47.014;7.652;2022-08-07T01:54:32;18.80;99.90
3752;DHT22;50827;47.014;7.652;2022-08-07T01:57:12;18.90;99.90
3752;DHT22;50827;47.014;7.652;2022-08-07T02:00:00;18.90;99.90
3752;DHT22;50827;47.014;7.652;2022-08-07T02:02:37;18.90;99.90
3752;DHT22;50827;47.014;7.652;2022-08-07T02:05:36;18.90;99.90
3752;DHT22;50827;47.014;7.652;2022-08-07T02:08:23;18.90;99.90
3752;DHT22;50827;47.014;7.652;2022-08-07T02:10:51;18.80;99.90
3752;DHT22;50827;47.014;7.652;2022-08-07T02:13:26;18.80;99.90
3752;DHT22;50827;47.014;7.652;2022-08-07T02:16:13;18.70;99.90
3752;DHT22;50827;47.014;7.652;2022-08-07T02:18:41;18.80;99.90
3752;DHT22;50827;47.014;7.652;2022-08-07T02:21:14;18.80;99.90
3752;DHT22;50827;47.014;7.652;2022-08-07T02:23:42;18.70;99.90
3752;DHT22;50827;47.014;7.652;2022-08-07T02:29:00;18.70;99.90
3752;DHT22;50827;47.014;7.652;2022-08-07T02:31:27;18.80;99.90
3752;DHT22;50827;47.014;7.652;2022-08-07T02:33:56;18.80;99.90
3752;DHT22;50827;47.014;7.652;2022-08-07T02:36:30;18.80;99.90
3752;DHT22;50827;47.014;7.652;2022-08-07T02:39:01;18.70;99.90
3752;DHT22;50827;47.014;7.652;2022-08-07T02:41:43;18.60;99.90
3752;DHT22;50827;47.014;7.652;2022-08-07T02:44:17;18.60;99.90
3752;DHT22;50827;47.014;7.652;2022-08-07T02:46:45;18.50;99.90
3752;DHT22;50827;47.014;7.652;2022-08-07T02:49:18;18.60;99.90
3752;DHT22;50827;47.014;7.652;2022-08-07T02:52:08;18.60;99.90
3752;DHT22;50827;47.014;7.652;2022-08-07T02:54:40;18.50;99.90
3752;DHT22;50827;47.014;7.652;2022-08-07T02:57:11;18.50;99.90
3752;DHT22;50827;47.014;7.652;2022-08-07T02:59:43;18.60;99.90
3752;DHT22;50827;47.014;7.652;2022-08-07T03:02:26;18.60;99.90
3752;DHT22;50827;47.014;7.652;2022-08-07T03:04:54;18.70;99.90
3752;DHT22;50827;47.014;7.652;2022-08-07T03:07:23;18.60;99.90
3752;DHT22;50827;47.014;7.652;2022-08-07T03:10:10;18.60;99.90
3752;DHT22;50827;47.014;7.652;2022-08-07T03:12:40;18.60;99.90
3752;DHT22;50827;47.014;7.652;2022-08-07T03:15:09;18.50;99.90
3752;DHT22;50827;47.014;7.652;2022-08-07T03:17:38;18.40;99.90
3752;DHT22;50827;47.014;7.652;2022-08-07T03:20:20;18.50;99.90
3752;DHT22;50827;47.014;7.652;2022-08-07T03:22:48;18.40;99.90
3752;DHT22;50827;47.014;7.652;2022-08-07T03:25:16;18.40;99.90
3752;DHT22;50827;47.014;7.652;2022-08-07T03:27:48;18.30;99.90
3752;DHT22;50827;47.014;7.652;2022-08-07T03:30:35;18.20;99.90
3752;DHT22;50827;47.014;7.652;2022-08-07T03:33:03;18.20;99.90
3752;DHT22;50827;47.014;7.652;2022-08-07T03:35:36;18.20;99.90
3752;DHT22;50827;47.014;7.652;2022-08-07T03:38:16;18.20;99.90
3752;DHT22;50827;47.014;7.652;2022-08-07T03:40:49;18.20;99.90
3752;DHT22;50827;47.014;7.652;2022-08-07T03:43:23;18.10;99.90
3752;DHT22;50827;47.014;7.652;2022-08-07T03:45:52;18.10;99.90
3752;DHT22;50827;47.014;7.652;2022-08-07T03:48:19;18.10;99.90
3752;DHT22;50827;47.014;7.652;2022-08-07T03:50:46;18.10;99.90
3752;DHT22;50827;47.014;7.652;2022-08-07T03:53:23;18.10;99.90
3752;DHT22;50827;47.014;7.652;2022-08-07T03:56:10;18.10;99.90
3752;DHT22;50827;47.014;7.652;2022-08-07T03:58:40;18.20;99.90
3752;DHT22;50827;47.014;7.652;2022-08-07T04:01:27;18.20;99.90
3752;DHT22;50827;47.014;7.652;2022-08-07T04:03:58;18.20;99.90
3752;DHT22;50827;47.014;7.652;2022-08-07T04:06:30;18.20;99.90
3752;DHT22;50827;47.014;7.652;2022-08-07T04:09:04;18.20;99.90
3752;DHT22;50827;47.014;7.652;2022-08-07T04:11:31;18.30;99.90
3752;DHT22;50827;47.014;7.652;2022-08-07T04:14:19;18.20;99.90
3752;DHT22;50827;47.014;7.652;2022-08-07T04:17:06;18.10;99.90
3752;DHT22;50827;47.014;7.652;2022-08-07T04:19:47;18.10;99.90
3752;DHT22;50827;47.014;7.652;2022-08-07T04:22:22;18.20;99.90
3752;DHT22;50827;47.014;7.652;2022-08-07T04:24:58;18.20;99.90
3752;DHT22;50827;47.014;7.652;2022-08-07T04:27:27;18.10;99.90
3752;DHT22;50827;47.014;7.652;2022-08-07T04:30:01;18.00;99.90
3752;DHT22;50827;47.014;7.652;2022-08-07T04:32:39;18.10;99.90
3752;DHT22;50827;47.014;7.652;2022-08-07T04:35:13;18.10;99.90
3752;DHT22;50827;47.014;7.652;2022-08-07T04:37:41;18.20;99.90
3752;DHT22;50827;47.014;7.652;2022-08-07T04:40:27;18.10;99.90
3752;DHT22;50827;47.014;7.652;2022-08-07T04:42:57;18.10;99.90
3752;DHT22;50827;47.014;7.652;2022-08-07T04:45:37;18.20;99.90
3752;DHT22;50827;47.014;7.652;2022-08-07T04:51:27;18.20;99.90
3752;DHT22;50827;47.014;7.652;2022-08-07T04:54:07;18.10;99.90
3752;DHT22;50827;47.014;7.652;2022-08-07T04:56:51;18.10;99.90
3752;DHT22;50827;47.014;7.652;2022-08-07T05:00:04;18.10;99.90
3752;DHT22;50827;47.014;7.652;2022-08-07T05:06:11;18.00;99.90
3752;DHT22;50827;47.014;7.652;2022-08-07T05:09:09;18.10;99.90
3752;DHT22;50827;47.014;7.652;2022-08-07T05:11:41;18.10;99.90
3752;DHT22;50827;47.014;7.652;2022-08-07T05:14:27;18.00;99.90
3752;DHT22;50827;47.014;7.652;2022-08-07T05:17:18;18.10;99.90
3752;DHT22;50827;47.014;7.652;2022-08-07T05:20:07;18.10;99.90
3752;DHT22;50827;47.014;7.652;2022-08-07T05:22:37;18.20;99.90
3752;DHT22;50827;47.014;7.652;2022-08-07T05:25:06;18.20;99.90
3752;DHT22;50827;47.014;7.652;2022-08-07T05:27:37;18.20;99.90
3752;DHT22;50827;47.014;7.652;2022-08-07T05:30:25;18.20;99.90
3752;DHT22;50827;47.014;7.652;2022-08-07T05:33:00;18.20;99.90
3752;DHT22;50827;47.014;7.652;2022-08-07T05:35:31;18.20;99.90
3752;DHT22;50827;47.014;7.652;2022-08-07T05:37:59;18.10;99.90
3752;DHT22;50827;47.014;7.652;2022-08-07T05:40:37;18.20;99.90
3752;DHT22;50827;47.014;7.652;2022-08-07T05:43:17;18.20;99.90
3752;DHT22;50827;47.014;7.652;2022-08-07T05:46:03;18.20;99.90
3752;DHT22;50827;47.014;7.652;2022-08-07T05:48:52;18.30;99.90
3752;DHT22;50827;47.014;7.652;2022-08-07T05:51:46;18.40;99.90
3752;DHT22;50827;47.014;7.652;2022-08-07T05:54:33;18.40;99.90
3752;DHT22;50827;47.014;7.652;2022-08-07T05:57:40;18.40;99.90
3752;DHT22;50827;47.014;7.652;2022-08-07T06:00:32;18.40;99.90
3752;DHT22;50827;47.014;7.652;2022-08-07T06:03:22;18.40;99.90
3752;DHT22;50827;47.014;7.652;2022-08-07T06:06:11;18.40;99.90
3752;DHT22;50827;47.014;7.652;2022-08-07T06:09:05;18.40;99.90
3752;DHT22;50827;47.014;7.652;2022-08-07T06:11:53;18.40;99.90
3752;DHT22;50827;47.014;7.652;2022-08-07T06:14:41;18.40;99.90
3752;DHT22;50827;47.014;7.652;2022-08-07T06:17:35;18.50;99.90
3752;DHT22;50827;47.014;7.652;2022-08-07T06:20:27;18.50;99.90
3752;DHT22;50827;47.014;7.652;2022-08-07T06:23:36;18.60;99.90
3752;DHT22;50827;47.014;7.652;2022-08-07T06:26:43;18.60;99.90
3752;DHT22;50827;47.014;7.652;2022-08-07T06:29:33;18.50;99.90
3752;DHT22;50827;47.014;7.652;2022-08-07T06:32:24;18.50;99.90
3752;DHT22;50827;47.014;7.652;2022-08-07T06:35:15;18.60;99.90
3752;DHT22;50827;47.014;7.652;2022-08-07T06:38:06;18.60;99.90
3752;DHT22;50827;47.014;7.652;2022-08-07T06:40:56;18.60;99.90
3752;DHT22;50827;47.014;7.652;2022-08-07T06:43:46;18.60;99.90
3752;DHT22;50827;47.014;7.652;2022-08-07T06:46:52;18.60;99.90
3752;DHT22;50827;47.014;7.652;2022-08-07T06:49:59;18.60;99.90
3752;DHT22;50827;47.014;7.652;2022-08-07T06:52:53;18.60;99.90
3752;DHT22;50827;47.014;7.652;2022-08-07T06:55:43;18.70;99.90
3752;DHT22;50827;47.014;7.652;2022-08-07T06:58:48;18.70;99.90
3752;DHT22;50827;47.014;7.652;2022-08-07T07:01:57;18.60;99.90
3752;DHT22;50827;47.014;7.652;2022-08-07T07:04:45;18.60;99.90
3752;DHT22;50827;47.014;7.652;2022-08-07T07:07:44;18.70;99.90
3752;DHT22;50827;47.014;7.652;2022-08-07T07:10:52;18.70;99.90
3752;DHT22;50827;47.014;7.652;2022-08-07T07:13:46;18.70;99.90
3752;DHT22;50827;47.014;7.652;2022-08-07T07:16:50;18.70;99.90
3752;DHT22;50827;47.014;7.652;2022-08-07T07:19:45;18.80;99.90
3752;DHT22;50827;47.014;7.652;2022-08-07T07:22:44;18.80;99.90
3752;DHT22;50827;47.014;7.652;2022-08-07T07:25:57;18.90;99.90
3752;DHT22;50827;47.014;7.652;2022-08-07T07:29:10;18.80;99.90
3752;DHT22;50827;47.014;7.652;2022-08-07T07:32:18;18.80;99.90
3752;DHT22;50827;47.014;7.652;2022-08-07T07:35:09;18.90;99.90
3752;DHT22;50827;47.014;7.652;2022-08-07T07:37:59;19.00;99.90
3752;DHT22;50827;47.014;7.652;2022-08-07T07:40:58;19.00;99.90
3752;DHT22;50827;47.014;7.652;2022-08-07T07:43:50;19.00;99.90
3752;DHT22;50827;47.014;7.652;2022-08-07T07:47:00;19.10;99.90
3752;DHT22;50827;47.014;7.652;2022-08-07T07:50:03;19.10;99.90
3752;DHT22;50827;47.014;7.652;2022-08-07T07:53:11;19.10;99.90
3752;DHT22;50827;47.014;7.652;2022-08-07T07:56:12;19.10;99.90
3752;DHT22;50827;47.014;7.652;2022-08-07T07:59:03;19.30;99.90
3752;DHT22;50827;47.014;7.652;2022-08-07T08:01:53;19.30;99.90
3752;DHT22;50827;47.014;7.652;2022-08-07T08:04:51;19.30;99.90
3752;DHT22;50827;47.014;7.652;2022-08-07T08:07:41;19.40;99.90
3752;DHT22;50827;47.014;7.652;2022-08-07T08:10:47;19.40;99.90
3752;DHT22;50827;47.014;7.652;2022-08-07T08:13:41;19.40;99.90
3752;DHT22;50827;47.014;7.652;2022-08-07T08:16:42;19.40;99.90
3752;DHT22;50827;47.014;7.652;2022-08-07T08:19:37;19.50;99.90
3752;DHT22;50827;47.014;7.652;2022-08-07T08:22:46;19.50;99.90
3752;DHT22;50827;47.014;7.652;2022-08-07T08:25:57;19.50;99.90
3752;DHT22;50827;47.014;7.652;2022-08-07T08:29:04;19.50;99.90
3752;DHT22;50827;47.014;7.652;2022-08-07T08:31:54;19.60;99.90
3752;DHT22;50827;47.014;7.652;2022-08-07T08:35:04;19.60;99.90
3752;DHT22;50827;47.014;7.652;2022-08-07T08:37:58;19.60;99.90
3752;DHT22;50827;47.014;7.652;2022-08-07T08:44:42;19.50;99.90
3752;DHT22;50827;47.014;7.652;2022-08-07T08:51:11;19.50;99.90
3752;DHT22;50827;47.014;7.652;2022-08-07T08:54:37;19.50;99.90
3752;DHT22;50827;47.014;7.652;2022-08-07T08:57:45;19.60;99.90
3752;DHT22;50827;47.014;7.652;2022-08-07T09:00:41;19.70;99.90
3752;DHT22;50827;47.014;7.652;2022-08-07T09:03:55;19.70;99.90
3752;DHT22;50827;47.014;7.652;2022-08-07T09:07:02;19.70;99.90
3752;DHT22;50827;47.014;7.652;2022-08-07T09:10:16;19.80;99.90
3752;DHT22;50827;47.014;7.652;2022-08-07T09:13:38;19.80;99.90
3752;DHT22;50827;47.014;7.652;2022-08-07T09:19:56;19.80;99.90
3752;DHT22;50827;47.014;7.652;2022-08-07T09:23:17;19.80;99.90
3752;DHT22;50827;47.014;7.652;2022-08-07T09:27:01;19.90;99.90
3752;DHT22;50827;47.014;7.652;2022-08-07T09:30:08;19.90;99.90
3752;DHT22;50827;47.014;7.652;2022-08-07T09:33:19;19.90;99.90
3752;DHT22;50827;47.014;7.652;2022-08-07T09:36:33;20.00;99.90
3752;DHT22;50827;47.014;7.652;2022-08-07T09:39:45;20.20;99.90
3752;DHT22;50827;47.014;7.652;2022-08-07T09:43:35;20.20;99.90
3752;DHT22;50827;47.014;7.652;2022-08-07T09:53:38;20.30;99.90
3752;DHT22;50827;47.014;7.652;2022-08-07T10:00:05;20.30;99.90
3752;DHT22;50827;47.014;7.652;2022-08-07T10:03:10;20.30;99.90
3752;DHT22;50827;47.014;7.652;2022-08-07T10:06:28;20.30;99.90
3752;DHT22;50827;47.014;7.652;2022-08-07T10:09:53;20.20;99.90
3752;DHT22;50827;47.014;7.652;2022-08-07T10:13:03;20.20;99.90
3752;DHT22;50827;47.014;7.652;2022-08-07T10:27:02;20.30;99.90
3752;DHT22;50827;47.014;7.652;2022-08-07T10:30:05;20.30;99.90
3752;DHT22;50827;47.014;7.652;2022-08-07T10:33:06;20.20;99.90
3752;DHT22;50827;47.014;7.652;2022-08-07T10:39:04;20.10;99.90
3752;DHT22;50827;47.014;7.652;2022-08-07T10:42:34;20.10;99.90
3752;DHT22;50827;47.014;7.652;2022-08-07T10:45:37;20.10;99.90
3752;DHT22;50827;47.014;7.652;2022-08-07T10:52:20;20.20;99.90
3752;DHT22;50827;47.014;7.652;2022-08-07T10:55:25;20.20;99.90
3752;DHT22;50827;47.014;7.652;2022-08-07T10:58:41;20.30;99.90
3752;DHT22;50827;47.014;7.652;2022-08-07T11:01:56;20.20;99.90
3752;DHT22;50827;47.014;7.652;2022-08-07T11:05:10;20.20;99.90
3752;DHT22;50827;47.014;7.652;2022-08-07T11:08:19;20.10;99.90
3752;DHT22;50827;47.014;7.652;2022-08-07T11:11:30;20.20;99.90
3752;DHT22;50827;47.014;7.652;2022-08-07T11:14:25;20.20;99.90
3752;DHT22;50827;47.014;7.652;2022-08-07T11:17:57;20.30;99.90
3752;DHT22;50827;47.014;7.652;2022-08-07T11:24:00;20.30;99.90
3752;DHT22;50827;47.014;7.652;2022-08-07T11:26:54;20.30;99.90
3752;DHT22;50827;47.014;7.652;2022-08-07T11:30:06;20.40;99.90
3752;DHT22;50827;47.014;7.652;2022-08-07T11:36:10;20.50;99.90
3752;DHT22;50827;47.014;7.652;2022-08-07T11:42:21;20.50;99.90
3752;DHT22;50827;47.014;7.652;2022-08-07T11:45:09;20.40;99.90
3752;DHT22;50827;47.014;7.652;2022-08-07T11:47:58;20.30;99.90
3752;DHT22;50827;47.014;7.652;2022-08-07T11:57:21;20.50;99.90
3752;DHT22;50827;47.014;7.652;2022-08-07T12:00:19;20.40;99.90
3752;DHT22;50827;47.014;7.652;2022-08-07T12:03:24;20.40;99.90
3752;DHT22;50827;47.014;7.652;2022-08-07T12:09:23;20.60;99.90
3752;DHT22;50827;47.014;7.652;2022-08-07T12:11:56;20.60;99.90
3752;DHT22;50827;47.014;7.652;2022-08-07T12:14:57;20.50;99.90
3752;DHT22;50827;47.014;7.652;2022-08-07T12:17:32;20.50;99.90
3752;DHT22;50827;47.014;7.652;2022-08-07T12:20:26;20.60;99.90
3752;DHT22;50827;47.014;7.652;2022-08-07T12:23:15;20.60;99.90
3752;DHT22;50827;47.014;7.652;2022-08-07T12:29:15;20.60;99.90
3752;DHT22;50827;47.014;7.652;2022-08-07T12:32:16;20.60;99.90
3752;DHT22;50827;47.014;7.652;2022-08-07T12:34:45;20.50;99.90
3752;DHT22;50827;47.014;7.652;2022-08-07T12:37:23;20.50;99.90
3752;DHT22;50827;47.014;7.652;2022-08-07T12:40:11;20.60;99.90
3752;DHT22;50827;47.014;7.652;2022-08-07T12:43:02;20.60;99.90
3752;DHT22;50827;47.014;7.652;2022-08-07T12:45:46;20.70;99.90
3752;DHT22;50827;47.014;7.652;2022-08-07T12:51:23;20.80;99.90
3752;DHT22;50827;47.014;7.652;2022-08-07T12:54:24;20.90;99.90
3752;DHT22;50827;47.014;7.652;2022-08-07T12:57:04;20.90;99.90
3752;DHT22;50827;47.014;7.652;2022-08-07T12:59:36;21.10;99.90
3752;DHT22;50827;47.014;7.652;2022-08-07T13:05:35;21.30;99.90
3752;DHT22;50827;47.014;7.652;2022-08-07T13:08:54;21.20;99.90
3752;DHT22;50827;47.014;7.652;2022-08-07T13:11:36;21.30;99.90
3752;DHT22;50827;47.014;7.652;2022-08-07T13:14:37;21.50;99.90
3752;DHT22;50827;47.014;7.652;2022-08-07T13:17:23;21.60;99.90
3752;DHT22;50827;47.014;7.652;2022-08-07T13:20:14;21.70;99.90
3752;DHT22;50827;47.014;7.652;2022-08-07T13:22:53;21.60;99.90
3752;DHT22;50827;47.014;7.652;2022-08-07T13:25:44;21.60;99.90
3752;DHT22;50827;47.014;7.652;2022-08-07T13:28:20;21.70;99.90
3752;DHT22;50827;47.014;7.652;2022-08-07T13:30:56;21.80;99.90
3752;DHT22;50827;47.014;7.652;2022-08-07T13:36:25;21.70;99.90
3752;DHT22;50827;47.014;7.652;2022-08-07T13:39:06;21.60;99.90
3752;DHT22;50827;47.014;7.652;2022-08-07T13:41:54;21.60;99.90
3752;DHT22;50827;47.014;7.652;2022-08-07T13:44:24;21.80;99.90
3752;DHT22;50827;47.014;7.652;2022-08-07T13:47:00;21.80;99.90
3752;DHT22;50827;47.014;7.652;2022-08-07T13:49:37;21.70;99.90
3752;DHT22;50827;47.014;7.652;2022-08-07T13:52:26;21.60;99.90
3752;DHT22;50827;47.014;7.652;2022-08-07T13:55:14;21.60;99.90
3752;DHT22;50827;47.014;7.652;2022-08-07T13:57:57;21.70;99.90
3752;DHT22;50827;47.014;7.652;2022-08-07T14:00:54;21.80;99.90
3752;DHT22;50827;47.014;7.652;2022-08-07T14:03:26;21.90;99.90
3752;DHT22;50827;47.014;7.652;2022-08-07T14:06:16;22.00;99.90
3752;DHT22;50827;47.014;7.652;2022-08-07T14:08:49;22.10;99.90
3752;DHT22;50827;47.014;7.652;2022-08-07T14:11:21;22.10;99.90
3752;DHT22;50827;47.014;7.652;2022-08-07T14:13:50;22.10;99.90
3752;DHT22;50827;47.014;7.652;2022-08-07T14:16:32;22.10;99.90
3752;DHT22;50827;47.014;7.652;2022-08-07T14:19:00;22.30;99.90
3752;DHT22;50827;47.014;7.652;2022-08-07T14:21:39;22.30;99.90
3752;DHT22;50827;47.014;7.652;2022-08-07T14:24:36;22.30;99.90
3752;DHT22;50827;47.014;7.652;2022-08-07T14:27:12;22.30;99.90
3752;DHT22;50827;47.014;7.652;2022-08-07T14:30:08;22.20;99.90
3752;DHT22;50827;47.014;7.652;2022-08-07T14:32:58;22.10;99.90
3752;DHT22;50827;47.014;7.652;2022-08-07T14:35:32;22.00;99.90
3752;DHT22;50827;47.014;7.652;2022-08-07T14:38:22;21.90;99.90
3752;DHT22;50827;47.014;7.652;2022-08-07T14:41:05;22.00;99.90
3752;DHT22;50827;47.014;7.652;2022-08-07T14:43:42;21.90;99.90
3752;DHT22;50827;47.014;7.652;2022-08-07T14:46:31;21.80;99.90
3752;DHT22;50827;47.014;7.652;2022-08-07T14:49:00;21.80;99.90
3752;DHT22;50827;47.014;7.652;2022-08-07T14:51:49;21.90;99.90
3752;DHT22;50827;47.014;7.652;2022-08-07T14:54:37;22.00;99.90
3752;DHT22;50827;47.014;7.652;2022-08-07T14:57:11;21.90;99.90
3752;DHT22;50827;47.014;7.652;2022-08-07T14:59:45;22.00;99.90
3752;DHT22;50827;47.014;7.652;2022-08-07T15:02:32;22.00;99.90
3752;DHT22;50827;47.014;7.652;2022-08-07T15:05:03;22.10;99.90
3752;DHT22;50827;47.014;7.652;2022-08-07T15:07:47;22.10;99.90
3752;DHT22;50827;47.014;7.652;2022-08-07T15:10:21;22.10;99.90
3752;DHT22;50827;47.014;7.652;2022-08-07T15:13:15;22.10;99.90
3752;DHT22;50827;47.014;7.652;2022-08-07T15:15:50;22.10;99.90
3752;DHT22;50827;47.014;7.652;2022-08-07T15:18:21;22.10;99.90
3752;DHT22;50827;47.014;7.652;2022-08-07T15:21:05;22.10;99.90
3752;DHT22;50827;47.014;7.652;2022-08-07T15:23:56;22.10;99.90
3752;DHT22;50827;47.014;7.652;2022-08-07T15:26:46;22.10;99.90
3752;DHT22;50827;47.014;7.652;2022-08-07T15:29:17;22.10;99.90
3752;DHT22;50827;47.014;7.652;2022-08-07T15:32:07;22.10;99.90
3752;DHT22;50827;47.014;7.652;2022-08-07T15:34:58;22.20;99.90
3752;DHT22;50827;47.014;7.652;2022-08-07T15:37:31;22.20;99.90
3752;DHT22;50827;47.014;7.652;2022-08-07T15:40:19;22.20;99.90
3752;DHT22;50827;47.014;7.652;2022-08-07T15:45:57;22.30;99.90
3752;DHT22;50827;47.014;7.652;2022-08-07T15:48:50;22.40;99.90
3752;DHT22;50827;47.014;7.652;2022-08-07T15:51:39;22.40;99.90
3752;DHT22;50827;47.014;7.652;2022-08-07T15:54:32;22.30;99.90
3752;DHT22;50827;47.014;7.652;2022-08-07T15:57:07;22.40;99.90
3752;DHT22;50827;47.014;7.652;2022-08-07T15:59:54;22.40;99.90
3752;DHT22;50827;47.014;7.652;2022-08-07T16:02:27;22.50;99.90
3752;DHT22;50827;47.014;7.652;2022-08-07T16:05:02;22.40;99.90
3752;DHT22;50827;47.014;7.652;2022-08-07T16:08:06;22.50;99.90
3752;DHT22;50827;47.014;7.652;2022-08-07T16:14:08;22.50;99.90
3752;DHT22;50827;47.014;7.652;2022-08-07T16:16:40;22.40;99.90
3752;DHT22;50827;47.014;7.652;2022-08-07T16:19:36;22.30;99.90
3752;DHT22;50827;47.014;7.652;2022-08-07T16:22:46;22.30;99.90
3752;DHT22;50827;47.014;7.652;2022-08-07T16:25:31;22.30;99.90
3752;DHT22;50827;47.014;7.652;2022-08-07T16:29:01;22.30;99.90
3752;DHT22;50827;47.014;7.652;2022-08-07T16:32:01;22.30;99.90
3752;DHT22;50827;47.014;7.652;2022-08-07T16:45:58;22.30;99.90
3752;DHT22;50827;47.014;7.652;2022-08-07T16:49:06;22.20;99.90
3752;DHT22;50827;47.014;7.652;2022-08-07T16:54:58;22.10;99.90
3752;DHT22;50827;47.014;7.652;2022-08-07T16:58:00;22.10;99.90
3752;DHT22;50827;47.014;7.652;2022-08-07T17:00:42;22.10;99.90
3752;DHT22;50827;47.014;7.652;2022-08-07T17:05:57;21.90;99.90
3752;DHT22;50827;47.014;7.652;2022-08-07T17:08:55;21.90;99.90
3752;DHT22;50827;47.014;7.652;2022-08-07T17:11:59;21.80;99.90
3752;DHT22;50827;47.014;7.652;2022-08-07T17:15:06;21.80;99.90
3752;DHT22;50827;47.014;7.652;2022-08-07T17:20:35;21.90;99.90
3752;DHT22;50827;47.014;7.652;2022-08-07T17:26:17;21.80;99.90
3752;DHT22;50827;47.014;7.652;2022-08-07T17:29:11;21.80;99.90
3752;DHT22;50827;47.014;7.652;2022-08-07T17:35:31;21.90;99.90
3752;DHT22;50827;47.014;7.652;2022-08-07T17:38:16;21.90;99.90
3752;DHT22;50827;47.014;7.652;2022-08-07T17:47:40;21.80;99.90
3752;DHT22;50827;47.014;7.652;2022-08-07T17:50:17;21.80;99.90
3752;DHT22;50827;47.014;7.652;2022-08-07T17:52:54;21.80;99.90
3752;DHT22;50827;47.014;7.652;2022-08-07T17:55:51;21.80;99.90
3752;DHT22;50827;47.014;7.652;2022-08-07T18:01:25;21.80;99.90
3752;DHT22;50827;47.014;7.652;2022-08-07T18:06:47;21.80;99.90
3752;DHT22;50827;47.014;7.652;2022-08-07T18:09:40;21.80;99.90
3752;DHT22;50827;47.014;7.652;2022-08-07T18:12:40;21.80;99.90
3752;DHT22;50827;47.014;7.652;2022-08-07T18:15:22;21.90;99.90
3752;DHT22;50827;47.014;7.652;2022-08-07T18:18:14;21.90;99.90
3752;DHT22;50827;47.014;7.652;2022-08-07T18:21:04;21.90;99.90
3752;DHT22;50827;47.014;7.652;2022-08-07T18:24:05;21.80;99.90
3752;DHT22;50827;47.014;7.652;2022-08-07T18:27:10;21.80;99.90
3752;DHT22;50827;47.014;7.652;2022-08-07T18:38:53;21.70;99.90
3752;DHT22;50827;47.014;7.652;2022-08-07T18:42:04;21.60;99.90
3752;DHT22;50827;47.014;7.652;2022-08-07T18:44:49;21.60;99.90
3752;DHT22;50827;47.014;7.652;2022-08-07T18:51:18;21.60;99.90
3752;DHT22;50827;47.014;7.652;2022-08-07T18:57:16;21.50;99.90
3752;DHT22;50827;47.014;7.652;2022-08-07T19:00:06;21.50;99.90
3752;DHT22;50827;47.014;7.652;2022-08-07T19:03:11;21.50;99.90
3752;DHT22;50827;47.014;7.652;2022-08-07T19:05:58;21.40;99.90
3752;DHT22;50827;47.014;7.652;2022-08-07T19:14:22;21.30;99.90
3752;DHT22;50827;47.014;7.652;2022-08-07T19:16:54;21.30;99.90
3752;DHT22;50827;47.014;7.652;2022-08-07T19:19:40;21.30;99.90
3752;DHT22;50827;47.014;7.652;2022-08-07T19:24:57;21.30;99.90
3752;DHT22;50827;47.014;7.652;2022-08-07T19:27:35;21.30;99.90
3752;DHT22;50827;47.014;7.652;2022-08-07T19:30:30;21.30;99.90
3752;DHT22;50827;47.014;7.652;2022-08-07T19:33:20;21.20;99.90
3752;DHT22;50827;47.014;7.652;2022-08-07T19:36:02;21.20;99.90
3752;DHT22;50827;47.014;7.652;2022-08-07T19:38:31;21.20;99.90
3752;DHT22;50827;47.014;7.652;2022-08-07T19:41:01;21.10;99.90
3752;DHT22;50827;47.014;7.652;2022-08-07T19:43:30;21.10;99.90
3752;DHT22;50827;47.014;7.652;2022-08-07T19:46:23;21.00;99.90
3752;DHT22;50827;47.014;7.652;2022-08-07T19:49:05;21.00;99.90
3752;DHT22;50827;47.014;7.652;2022-08-07T19:51:34;21.00;99.90
3752;DHT22;50827;47.014;7.652;2022-08-07T19:54:20;20.90;99.90
3752;DHT22;50827;47.014;7.652;2022-08-07T19:57:10;20.90;99.90
3752;DHT22;50827;47.014;7.652;2022-08-07T20:00:04;20.90;99.90
3752;DHT22;50827;47.014;7.652;2022-08-07T20:02:42;20.80;99.90
3752;DHT22;50827;47.014;7.652;2022-08-07T20:05:22;20.70;99.90
3752;DHT22;50827;47.014;7.652;2022-08-07T20:07:58;20.70;99.90
3752;DHT22;50827;47.014;7.652;2022-08-07T20:10:28;20.60;99.90
3752;DHT22;50827;47.014;7.652;2022-08-07T20:13:21;20.50;99.90
3752;DHT22;50827;47.014;7.652;2022-08-07T20:15:52;20.40;99.90
3752;DHT22;50827;47.014;7.652;2022-08-07T20:18:24;20.30;99.90